createdAt,value
2018-09-01T00:01:46.318Z,99.90
2018-09-01T00:04:14.864Z,99.90
2018-09-01T00:06:43.435Z,99.90
2018-09-01T00:09:12.292Z,99.90
2018-09-01T00:11:40.874Z,99.90
2018-09-01T00:14:09.423Z,99.90
2018-09-01T00:16:38.116Z,99.90
2018-09-01T00:19:06.689Z,99.90
2018-09-01T00:21:35.251Z,99.90
2018-09-01T00:24:09.027Z,99.90
2018-09-01T00:26:38.428Z,99.90
2018-09-01T00:29:06.990Z,99.90
2018-09-01T00:31:35.859Z,99.90
2018-09-01T00:34:04.940Z,99.90
2018-09-01T00:36:33.545Z,99.90
2018-09-01T00:39:02.971Z,99.90
2018-09-01T00:41:32.652Z,99.90
2018-09-01T00:44:01.335Z,99.90
2018-09-01T00:46:29.917Z,99.90
2018-09-01T00:48:58.479Z,99.90
2018-09-01T00:51:27.187Z,99.90
2018-09-01T00:53:55.748Z,99.90
2018-09-01T00:56:24.340Z,99.90
2018-09-01T00:58:52.912Z,99.90
2018-09-01T01:01:21.548Z,99.90
2018-09-01T01:03:50.221Z,99.90
2018-09-01T01:06:18.782Z,99.90
2018-09-01T01:08:47.917Z,99.90
2018-09-01T01:11:17.615Z,99.90
2018-09-01T01:13:46.799Z,99.90
2018-09-01T01:16:16.010Z,99.90
2018-09-01T01:18:44.779Z,99.90
2018-09-01T01:21:13.597Z,99.90
2018-09-01T01:23:42.194Z,99.90
2018-09-01T01:26:10.795Z,99.90
2018-09-01T01:28:39.342Z,99.90
2018-09-01T01:31:07.907Z,99.90
2018-09-01T01:33:36.515Z,99.90
2018-09-01T01:36:05.078Z,99.90
2018-09-01T01:38:33.627Z,99.90
2018-09-01T01:41:02.207Z,99.90
2018-09-01T01:43:30.811Z,99.90
2018-09-01T01:45:59.362Z,99.90
2018-09-01T01:48:27.915Z,99.90
2018-09-01T01:50:56.695Z,99.90
2018-09-01T01:53:25.395Z,99.90
2018-09-01T01:55:53.974Z,99.90
2018-09-01T01:58:22.529Z,99.90
2018-09-01T02:00:51.164Z,99.90
2018-09-01T02:03:19.751Z,99.90
2018-09-01T02:05:48.308Z,99.90
2018-09-01T02:08:16.847Z,99.90
2018-09-01T02:10:45.395Z,99.90
2018-09-01T02:13:14.326Z,99.90
2018-09-01T02:15:42.898Z,99.90
2018-09-01T02:18:11.452Z,99.90
2018-09-01T02:20:40.005Z,99.90
2018-09-01T02:23:08.727Z,99.90
2018-09-01T02:25:37.327Z,99.90
2018-09-01T02:28:06.283Z,99.90
2018-09-01T02:30:35.167Z,99.90
2018-09-01T02:33:03.719Z,99.90
2018-09-01T02:35:32.455Z,99.90
2018-09-01T02:38:00.999Z,99.90
2018-09-01T02:40:29.559Z,99.90
2018-09-01T02:42:58.135Z,99.90
2018-09-01T02:45:26.750Z,99.90
2018-09-01T02:47:55.301Z,99.90
2018-09-01T02:50:23.854Z,99.90
2018-09-01T02:52:52.409Z,99.90
2018-09-01T02:55:20.999Z,99.90
2018-09-01T02:57:49.585Z,99.90
2018-09-01T03:00:23.901Z,99.90
2018-09-01T03:02:52.456Z,99.90
2018-09-01T03:05:21.003Z,99.90
2018-09-01T03:07:49.673Z,99.90
2018-09-01T03:10:18.287Z,99.90
2018-09-01T03:12:47.321Z,99.90
2018-09-01T03:15:15.889Z,99.90
2018-09-01T03:17:44.763Z,99.90
2018-09-01T03:20:13.306Z,99.90
2018-09-01T03:22:41.874Z,99.90
2018-09-01T03:25:10.530Z,99.90
2018-09-01T03:27:39.088Z,99.90
2018-09-01T03:30:07.818Z,99.90
2018-09-01T03:32:36.382Z,99.90
2018-09-01T03:35:05.485Z,99.90
2018-09-01T03:37:34.199Z,99.90
2018-09-01T03:40:02.802Z,99.90
2018-09-01T03:42:31.369Z,99.90
2018-09-01T03:44:59.912Z,99.90
2018-09-01T03:47:28.458Z,99.90
2018-09-01T03:49:57.415Z,99.90
2018-09-01T03:52:25.963Z,99.90
2018-09-01T03:54:54.503Z,99.90
2018-09-01T03:57:23.047Z,99.90
2018-09-01T03:59:51.783Z,99.90
2018-09-01T04:02:20.347Z,99.90
2018-09-01T04:04:48.904Z,99.90
2018-09-01T04:07:17.475Z,99.90
2018-09-01T04:09:46.021Z,99.90
2018-09-01T04:12:14.567Z,99.90
2018-09-01T04:14:43.163Z,99.90
2018-09-01T04:17:11.714Z,99.90
2018-09-01T04:19:40.274Z,99.90
2018-09-01T04:22:09.154Z,99.90
2018-09-01T04:24:37.699Z,99.90
2018-09-01T04:27:06.295Z,99.90
2018-09-01T04:29:35.078Z,99.90
2018-09-01T04:32:03.665Z,99.90
2018-09-01T04:34:32.208Z,99.90
2018-09-01T04:37:00.751Z,99.90
2018-09-01T04:39:29.296Z,99.90
2018-09-01T04:41:58.186Z,99.90
2018-09-01T04:44:26.812Z,99.90
2018-09-01T04:46:55.526Z,99.90
2018-09-01T04:49:24.075Z,99.90
2018-09-01T04:51:52.614Z,99.90
2018-09-01T04:54:21.179Z,99.90
2018-09-01T04:56:49.763Z,99.90
2018-09-01T04:59:18.327Z,99.90
2018-09-01T05:01:46.875Z,99.90
2018-09-01T05:04:15.420Z,99.90
2018-09-01T05:06:43.971Z,99.90
2018-09-01T05:09:12.586Z,99.90
2018-09-01T05:11:41.156Z,99.90
2018-09-01T05:14:09.899Z,99.90
2018-09-01T05:16:38.518Z,99.90
2018-09-01T05:19:07.184Z,99.90
2018-09-01T05:21:35.734Z,99.90
2018-09-01T05:24:04.390Z,99.90
2018-09-01T05:26:33.510Z,99.90
2018-09-01T05:29:02.126Z,99.90
2018-09-01T05:31:30.697Z,99.90
2018-09-01T05:33:59.343Z,99.90
2018-09-01T05:36:27.897Z,99.90
2018-09-01T05:38:56.492Z,99.90
2018-09-01T05:41:25.051Z,99.90
2018-09-01T05:43:53.636Z,99.90
2018-09-01T05:46:22.221Z,99.90
2018-09-01T05:48:51.083Z,99.90
2018-09-01T05:51:19.662Z,99.90
2018-09-01T05:53:48.212Z,99.90
2018-09-01T05:56:16.775Z,99.90
2018-09-01T05:58:45.326Z,99.90
2018-09-01T06:01:13.939Z,99.90
2018-09-01T06:03:42.538Z,99.90
2018-09-01T06:06:11.670Z,99.90
2018-09-01T06:08:40.045Z,99.90
2018-09-01T06:11:08.631Z,99.90
2018-09-01T06:13:37.175Z,99.90
2018-09-01T06:16:05.765Z,99.90
2018-09-01T06:18:34.755Z,99.90
2018-09-01T06:21:03.307Z,99.90
2018-09-01T06:23:31.897Z,99.90
2018-09-01T06:26:00.447Z,99.90
2018-09-01T06:28:40.706Z,99.90
2018-09-01T06:31:09.314Z,99.90
2018-09-01T06:33:37.931Z,99.90
2018-09-01T06:36:06.479Z,99.90
2018-09-01T06:38:35.033Z,99.90
2018-09-01T06:41:03.719Z,99.90
2018-09-01T06:43:32.383Z,99.90
2018-09-01T06:46:00.934Z,99.90
2018-09-01T06:48:29.500Z,99.90
2018-09-01T06:50:58.056Z,99.90
2018-09-01T06:53:26.941Z,99.90
2018-09-01T06:55:55.609Z,99.90
2018-09-01T06:58:24.166Z,99.90
2018-09-01T07:00:52.715Z,99.90
2018-09-01T07:03:21.283Z,99.90
2018-09-01T07:05:49.854Z,99.90
2018-09-01T07:08:18.419Z,99.90
2018-09-01T07:10:47.012Z,99.90
2018-09-01T07:13:15.576Z,99.90
2018-09-01T07:15:44.131Z,99.90
2018-09-01T07:18:12.680Z,99.90
2018-09-01T07:20:41.226Z,99.90
2018-09-01T07:23:09.935Z,99.90
2018-09-01T07:25:38.694Z,99.90
2018-09-01T07:28:07.762Z,99.90
2018-09-01T07:30:36.344Z,99.90
2018-09-01T07:33:04.953Z,99.90
2018-09-01T07:35:33.511Z,99.90
2018-09-01T07:38:02.114Z,99.90
2018-09-01T07:40:31.129Z,99.90
2018-09-01T07:42:59.707Z,99.90
2018-09-01T07:45:28.330Z,99.90
2018-09-01T07:47:56.872Z,99.90
2018-09-01T07:50:25.422Z,99.90
2018-09-01T07:52:53.974Z,99.90
2018-09-01T07:55:22.515Z,99.90
2018-09-01T07:57:51.343Z,99.90
2018-09-01T08:00:19.917Z,99.90
2018-09-01T08:02:48.479Z,99.90
2018-09-01T08:05:17.022Z,99.90
2018-09-01T08:07:45.584Z,99.90
2018-09-01T08:10:14.157Z,99.90
2018-09-01T08:12:42.730Z,99.90
2018-09-01T08:15:11.387Z,99.90
2018-09-01T08:17:40.287Z,99.90
2018-09-01T08:20:08.912Z,99.90
2018-09-01T08:22:37.537Z,99.90
2018-09-01T08:25:06.238Z,99.90
2018-09-01T08:27:34.936Z,99.90
2018-09-01T08:30:03.563Z,99.90
2018-09-01T08:32:32.127Z,99.90
2018-09-01T08:35:00.704Z,99.90
2018-09-01T08:37:29.704Z,99.90
2018-09-01T08:39:58.265Z,99.90
2018-09-01T08:42:26.892Z,99.90
2018-09-01T08:44:55.435Z,99.90
2018-09-01T08:47:23.999Z,99.90
2018-09-01T08:49:52.550Z,99.90
2018-09-01T08:52:21.099Z,99.90
2018-09-01T08:54:50.087Z,99.90
2018-09-01T08:57:18.689Z,99.90
2018-09-01T08:59:47.230Z,99.90
2018-09-01T09:02:15.978Z,99.90
2018-09-01T09:04:44.523Z,99.90
2018-09-01T09:07:13.080Z,99.90
2018-09-01T09:09:41.679Z,99.90
2018-09-01T09:12:10.265Z,99.90
2018-09-01T09:14:38.822Z,99.90
2018-09-01T09:17:07.564Z,99.90
2018-09-01T09:19:36.127Z,99.90
2018-09-01T09:22:04.687Z,99.90
2018-09-01T09:24:33.236Z,99.90
2018-09-01T09:27:01.785Z,99.90
2018-09-01T09:29:30.383Z,99.90
2018-09-01T09:31:58.938Z,99.90
2018-09-01T09:34:27.723Z,99.90
2018-09-01T09:36:56.728Z,99.90
2018-09-01T09:39:25.290Z,99.90
2018-09-01T09:41:53.936Z,99.90
2018-09-01T09:44:22.501Z,99.90
2018-09-01T09:46:51.115Z,99.90
2018-09-01T09:49:19.690Z,99.90
2018-09-01T09:51:48.241Z,99.90
2018-09-01T09:54:16.906Z,99.90
2018-09-01T09:56:45.531Z,99.90
2018-09-01T09:59:14.083Z,99.90
2018-09-01T10:01:43.049Z,99.90
2018-09-01T10:04:12.148Z,99.90
2018-09-01T10:06:40.718Z,99.90
2018-09-01T10:09:13.659Z,99.90
2018-09-01T10:11:43.043Z,99.90
2018-09-01T10:14:12.144Z,99.90
2018-09-01T10:16:41.639Z,99.90
2018-09-01T10:19:10.440Z,99.90
2018-09-01T10:21:39.291Z,99.90
2018-09-01T10:24:07.983Z,99.90
2018-09-01T10:26:36.666Z,99.90
2018-09-01T10:29:05.323Z,99.90
2018-09-01T10:31:34.241Z,99.90
2018-09-01T10:34:03.278Z,99.90
2018-09-01T10:36:31.873Z,99.90
2018-09-01T10:39:00.712Z,99.90
2018-09-01T10:41:29.322Z,99.90
2018-09-01T10:43:57.951Z,99.90
2018-09-01T10:46:26.557Z,99.90
2018-09-01T10:48:55.178Z,99.90
2018-09-01T10:51:23.799Z,99.90
2018-09-01T10:53:52.373Z,99.90
2018-09-01T10:56:20.923Z,99.90
2018-09-01T10:58:49.533Z,99.90
2018-09-01T11:01:18.105Z,99.90
2018-09-01T11:03:46.886Z,99.90
2018-09-01T11:06:15.438Z,99.90
2018-09-01T11:08:43.996Z,99.90
2018-09-01T11:11:12.570Z,99.90
2018-09-01T11:13:41.121Z,99.90
2018-09-01T11:16:10.113Z,99.90
2018-09-01T11:18:38.662Z,99.90
2018-09-01T11:21:07.211Z,99.90
2018-09-01T11:23:35.768Z,99.90
2018-09-01T11:26:04.351Z,99.90
2018-09-01T11:28:33.129Z,99.90
2018-09-01T11:31:01.772Z,99.90
2018-09-01T11:33:30.383Z,99.90
2018-09-01T11:35:58.995Z,99.90
2018-09-01T11:38:27.533Z,99.90
2018-09-01T11:40:56.490Z,99.90
2018-09-01T11:43:25.084Z,99.90
2018-09-01T11:45:53.637Z,99.90
2018-09-01T11:48:22.207Z,99.90
2018-09-01T11:50:50.762Z,99.90
2018-09-01T11:53:19.456Z,99.90
2018-09-01T11:55:47.882Z,99.90
2018-09-01T11:58:16.457Z,99.90
2018-09-01T12:00:45.019Z,99.90
2018-09-01T12:03:13.576Z,99.90
2018-09-01T12:05:42.149Z,99.90
2018-09-01T12:08:10.746Z,99.90
2018-09-01T12:10:39.336Z,99.90
2018-09-01T12:13:07.943Z,99.90
2018-09-01T12:15:36.728Z,99.90
2018-09-01T12:18:05.365Z,99.90
2018-09-01T12:20:33.914Z,99.90
2018-09-01T12:23:02.450Z,99.90
2018-09-01T12:25:31.097Z,99.90
2018-09-01T12:27:59.691Z,99.90
2018-09-01T12:30:28.266Z,99.90
2018-09-01T12:32:56.806Z,99.90
2018-09-01T12:35:25.578Z,99.90
2018-09-01T12:37:54.111Z,99.90
2018-09-01T12:40:22.677Z,99.90
2018-09-01T12:42:51.390Z,99.90
2018-09-01T12:45:20.159Z,99.90
2018-09-01T12:47:48.850Z,99.90
2018-09-01T12:50:17.411Z,99.90
2018-09-01T12:52:45.960Z,99.90
2018-09-01T12:55:14.515Z,99.90
2018-09-01T12:57:43.062Z,99.90
2018-09-01T13:00:12.054Z,99.90
2018-09-01T13:02:40.684Z,99.90
2018-09-01T13:05:09.263Z,99.90
2018-09-01T13:07:37.853Z,99.90
2018-09-01T13:10:06.484Z,99.90
2018-09-01T13:12:35.055Z,99.90
2018-09-01T13:15:03.642Z,99.90
2018-09-01T13:17:32.523Z,99.90
2018-09-01T13:20:01.096Z,99.90
2018-09-01T13:22:29.687Z,99.90
2018-09-01T13:24:58.240Z,99.90
2018-09-01T13:27:26.816Z,99.90
2018-09-01T13:29:55.380Z,99.90
2018-09-01T13:32:23.951Z,99.90
2018-09-01T13:34:52.853Z,99.90
2018-09-01T13:37:21.391Z,99.90
2018-09-01T13:39:50.055Z,99.90
2018-09-01T13:42:18.582Z,99.90
2018-09-01T13:44:47.184Z,99.90
2018-09-01T13:47:16.061Z,99.90
2018-09-01T13:49:44.623Z,99.90
2018-09-01T13:52:13.363Z,99.90
2018-09-01T13:54:41.918Z,99.90
2018-09-01T13:57:10.477Z,99.90
2018-09-01T13:59:39.330Z,99.90
2018-09-01T14:02:07.897Z,99.90
2018-09-01T14:04:36.454Z,99.90
2018-09-01T14:07:05.105Z,98.00
2018-09-01T14:09:33.655Z,99.90
2018-09-01T14:12:02.379Z,96.10
2018-09-01T14:14:31.011Z,98.00
2018-09-01T14:16:59.575Z,97.00
2018-09-01T14:19:28.572Z,93.30
2018-09-01T14:21:57.137Z,95.10
2018-09-01T14:24:25.707Z,99.00
2018-09-01T14:26:54.416Z,99.90
2018-09-01T14:29:22.975Z,97.90
2018-09-01T14:31:51.795Z,99.90
2018-09-01T14:34:20.653Z,98.40
2018-09-01T14:36:49.163Z,97.40
2018-09-01T14:39:17.718Z,97.40
2018-09-01T14:41:46.279Z,95.90
2018-09-01T14:44:15.239Z,96.90
2018-09-01T14:46:43.892Z,95.70
2018-09-01T14:49:12.526Z,95.90
2018-09-01T14:51:41.083Z,95.20
2018-09-01T14:54:09.651Z,93.30
2018-09-01T14:56:38.443Z,94.30
2018-09-01T14:59:07.025Z,93.40
2018-09-01T15:01:35.656Z,94.20
2018-09-01T15:04:04.339Z,96.00
2018-09-01T15:06:32.891Z,97.80
2018-09-01T15:09:01.457Z,98.10
2018-09-01T15:11:30.228Z,97.80
2018-09-01T15:13:59.247Z,99.90
2018-09-01T15:16:27.819Z,99.80
2018-09-01T15:18:56.383Z,98.90
2018-09-01T15:21:24.931Z,98.60
2018-09-01T15:23:53.506Z,99.70
2018-09-01T15:33:07.888Z,99.90
2018-09-01T15:35:36.446Z,99.90
2018-09-01T15:38:05.390Z,99.90
2018-09-01T15:40:33.987Z,99.90
2018-09-01T15:43:02.547Z,99.90
2018-09-01T15:45:31.486Z,99.90
2018-09-01T15:48:00.088Z,99.90
2018-09-01T15:50:28.993Z,99.90
2018-09-01T15:52:57.605Z,99.90
2018-09-01T15:55:26.183Z,99.90
2018-09-01T15:57:54.750Z,99.90
2018-09-01T16:00:23.299Z,99.90
2018-09-01T16:02:52.215Z,99.90
2018-09-01T16:05:20.832Z,99.90
2018-09-01T16:07:49.389Z,99.90
2018-09-01T16:10:18.018Z,99.90
2018-09-01T16:12:46.812Z,99.90
2018-09-01T16:15:15.735Z,99.90
2018-09-01T16:17:44.244Z,99.90
2018-09-01T16:21:42.223Z,99.90
2018-09-01T16:24:10.976Z,99.90
2018-09-01T16:26:39.587Z,99.90
2018-09-01T16:29:08.141Z,99.90
2018-09-01T16:31:37.267Z,99.90
2018-09-01T16:34:05.863Z,99.90
2018-09-01T16:36:34.414Z,99.90
2018-09-01T16:39:03.391Z,99.90
2018-09-01T16:41:31.948Z,99.90
2018-09-01T16:44:00.511Z,99.90
2018-09-01T16:46:29.090Z,99.90
2018-09-01T16:48:57.735Z,99.90
2018-09-01T16:51:26.293Z,99.90
2018-09-01T16:53:54.851Z,99.90
2018-09-01T16:56:23.479Z,99.90
2018-09-01T16:58:52.039Z,99.90
2018-09-01T17:01:20.876Z,99.90
2018-09-01T17:03:49.431Z,99.90
2018-09-01T17:06:18.228Z,99.90
2018-09-01T17:08:46.787Z,99.90
2018-09-01T17:11:15.493Z,99.90
2018-09-01T17:13:44.305Z,99.90
2018-09-01T17:16:12.879Z,99.90
2018-09-01T17:18:41.499Z,99.90
2018-09-01T17:21:10.041Z,99.90
2018-09-01T17:23:38.579Z,99.90
2018-09-01T17:26:07.528Z,99.90
2018-09-01T17:28:36.491Z,99.90
2018-09-01T17:31:05.353Z,99.90
2018-09-01T17:33:33.987Z,99.90
2018-09-01T17:36:02.950Z,99.90
2018-09-01T17:38:31.986Z,99.90
2018-09-01T17:41:00.552Z,99.90
2018-09-01T17:43:29.099Z,99.90
2018-09-01T17:45:57.743Z,99.90
2018-09-01T17:48:26.303Z,99.90
2018-09-01T17:50:55.208Z,99.90
2018-09-01T17:53:23.756Z,99.90
2018-09-01T17:55:52.367Z,99.90
2018-09-01T17:58:20.930Z,99.90
2018-09-01T18:00:49.545Z,99.90
2018-09-01T18:03:18.115Z,99.90
2018-09-01T18:05:46.678Z,99.90
2018-09-01T18:08:15.261Z,99.90
2018-09-01T18:10:43.866Z,99.90
2018-09-01T18:13:12.411Z,99.90
2018-09-01T18:15:40.986Z,99.90
2018-09-01T18:19:38.715Z,99.90
2018-09-01T18:22:07.494Z,99.90
2018-09-01T18:24:36.047Z,99.90
2018-09-01T18:27:05.082Z,99.90
2018-09-01T18:29:33.668Z,99.90
2018-09-01T18:32:02.490Z,99.90
2018-09-01T18:34:31.047Z,99.90
2018-09-01T18:36:59.598Z,99.90
2018-09-01T18:39:28.403Z,99.90
2018-09-01T18:41:57.065Z,99.90
2018-09-01T18:44:25.885Z,99.90
2018-09-01T18:46:54.548Z,99.90
2018-09-01T18:49:23.092Z,99.90
2018-09-01T18:51:51.938Z,99.90
2018-09-01T18:54:20.492Z,99.90
2018-09-01T18:56:49.048Z,99.90
2018-09-01T18:59:17.612Z,99.90
2018-09-01T19:03:15.347Z,99.90
2018-09-01T19:05:43.910Z,99.90
2018-09-01T19:08:12.671Z,99.90
2018-09-01T19:10:41.323Z,99.90
2018-09-01T19:13:09.875Z,99.90
2018-09-01T19:15:38.930Z,99.90
2018-09-01T19:18:07.539Z,99.90
2018-09-01T19:20:36.092Z,99.90
2018-09-01T19:23:04.680Z,99.90
2018-09-01T19:25:33.226Z,99.90
2018-09-01T19:28:01.790Z,99.90
2018-09-01T19:30:30.347Z,99.90
2018-09-01T19:32:58.907Z,99.90
2018-09-01T19:35:28.074Z,99.90
2018-09-01T19:37:56.650Z,99.90
2018-09-01T19:40:25.260Z,99.90
2018-09-01T19:42:53.835Z,99.90
2018-09-01T19:45:22.620Z,99.90
2018-09-01T19:47:51.136Z,99.90
2018-09-01T19:50:19.716Z,99.90
2018-09-01T19:52:48.556Z,99.90
2018-09-01T19:55:17.099Z,99.90
2018-09-01T19:57:45.663Z,99.90
2018-09-01T20:00:14.219Z,99.90
2018-09-01T20:02:42.764Z,99.90
2018-09-01T20:05:11.482Z,99.90
2018-09-01T20:07:39.993Z,99.90
2018-09-01T20:10:08.602Z,99.90
2018-09-01T20:12:37.184Z,99.90
2018-09-01T20:15:05.793Z,99.90
2018-09-01T20:17:34.339Z,99.90
2018-09-01T20:20:02.957Z,99.90
2018-09-01T20:22:31.654Z,99.90
2018-09-01T20:25:00.219Z,99.90
2018-09-01T20:27:28.774Z,99.90
2018-09-01T20:29:57.363Z,99.90
2018-09-01T20:32:25.986Z,99.90
2018-09-01T20:34:58.946Z,99.90
2018-09-01T20:37:27.500Z,99.90
2018-09-01T20:39:56.105Z,99.90
2018-09-01T20:42:24.650Z,99.90
2018-09-01T20:44:53.381Z,99.90
2018-09-01T20:47:21.924Z,99.90
2018-09-01T20:49:50.494Z,99.90
2018-09-01T20:52:19.387Z,99.90
2018-09-01T20:54:47.954Z,99.90
2018-09-01T20:57:16.515Z,99.90
2018-09-01T20:59:45.135Z,99.90
2018-09-01T21:02:13.706Z,99.90
2018-09-01T21:04:42.255Z,99.90
2018-09-01T21:07:10.835Z,99.90
2018-09-01T21:09:40.471Z,99.90
2018-09-01T21:12:09.033Z,99.90
2018-09-01T21:14:37.613Z,99.90
2018-09-01T21:17:06.377Z,99.90
2018-09-01T21:19:34.922Z,99.90
2018-09-01T21:22:03.474Z,99.90
2018-09-01T21:24:32.031Z,99.90
2018-09-01T21:27:00.588Z,99.90
2018-09-01T21:29:29.182Z,99.90
2018-09-01T21:31:57.754Z,99.90
2018-09-01T21:34:26.311Z,99.90
2018-09-01T21:36:55.322Z,99.90
2018-09-01T21:39:23.973Z,99.90
2018-09-01T21:41:52.635Z,99.90
2018-09-01T21:44:21.183Z,99.90
2018-09-01T21:46:49.737Z,99.90
2018-09-01T21:49:18.289Z,99.90
2018-09-01T21:51:46.889Z,99.90
2018-09-01T21:54:15.434Z,99.90
2018-09-01T21:56:44.327Z,99.90
2018-09-01T21:59:12.875Z,99.90
2018-09-01T22:01:41.531Z,99.90
2018-09-01T22:04:10.097Z,99.90
2018-09-01T22:06:38.655Z,99.90
2018-09-01T22:09:08.134Z,99.90
2018-09-01T22:11:36.718Z,99.90
2018-09-01T22:14:05.282Z,99.90
2018-09-01T22:16:33.823Z,99.90
2018-09-01T22:19:02.376Z,99.90
2018-09-01T22:21:31.090Z,99.90
2018-09-01T22:23:59.704Z,99.90
2018-09-01T22:26:28.640Z,99.90
2018-09-01T22:28:57.196Z,99.90
2018-09-01T22:31:25.864Z,99.90
2018-09-01T22:33:54.350Z,99.90
2018-09-01T22:36:22.920Z,99.90
2018-09-01T22:38:51.535Z,99.90
2018-09-01T22:41:20.106Z,99.90
2018-09-01T22:43:49.027Z,99.90
2018-09-01T22:46:17.583Z,99.90
2018-09-01T22:48:46.142Z,99.90
2018-09-01T22:51:14.718Z,99.90
2018-09-01T22:53:43.319Z,99.90
2018-09-01T22:56:11.905Z,99.90
2018-09-01T22:58:40.512Z,99.90
2018-09-01T23:01:09.071Z,99.90
2018-09-01T23:03:37.655Z,99.90
2018-09-01T23:06:06.263Z,99.90
2018-09-01T23:08:35.275Z,99.90
2018-09-01T23:11:03.837Z,99.90
2018-09-01T23:13:32.389Z,99.90
2018-09-01T23:16:00.963Z,99.90
2018-09-01T23:18:29.508Z,99.90
2018-09-01T23:20:58.497Z,99.90
2018-09-01T23:23:27.058Z,99.90
2018-09-01T23:25:55.908Z,99.90
2018-09-01T23:28:24.518Z,99.90
2018-09-01T23:30:53.095Z,99.90
2018-09-01T23:33:21.662Z,99.90
2018-09-01T23:35:50.218Z,99.90
2018-09-01T23:38:19.099Z,99.90
2018-09-01T23:40:47.684Z,99.90
2018-09-01T23:43:16.232Z,99.90
2018-09-01T23:45:44.783Z,99.90
2018-09-01T23:48:13.335Z,99.90
2018-09-01T23:50:41.884Z,99.90
2018-09-01T23:53:10.444Z,99.90
2018-09-01T23:55:39.037Z,99.90
2018-09-01T23:58:07.822Z,99.90
